Time;durP1;ratioP1;P1;durP2;ratioP2;P2;SDS_P1;SDS_P2;PMS_P1;PMS_P2;Temp;Humidity;BMP_temperature;BMP_pressure;BME280_temperature;BME280_humidity;BME280_pressure;Samples;Min_cycle;Max_cycle;Signal;HPM_P1;HPM_P2
2022/08/10 00:00:27;;;;;;;8.82;5.57;;;11.20;99.90;;;;;;5034666;28;20040;-66
2022/08/10 00:02:58;;;;;;;8.50;5.68;;;11.20;99.90;;;;;;5036235;28;20029;-68
2022/08/10 00:05:24;;;;;;;5.28;4.40;;;11.20;99.90;;;;;;5036601;28;20017;-68
2022/08/10 00:07:51;;;;;;;6.40;5.15;;;11.20;99.90;;;;;;5036216;28;20033;-68
2022/08/10 00:10:19;;;;;;;8.18;5.82;;;11.10;99.90;;;;;;5035390;28;20072;-67
2022/08/10 00:12:45;;;;;;;9.90;6.53;;;11.20;99.90;;;;;;5035981;28;20029;-68
2022/08/10 00:15:13;;;;;;;9.88;6.90;;;11.10;99.90;;;;;;5036115;28;20025;-68
2022/08/10 00:17:39;;;;;;;11.48;7.30;;;11.10;99.90;;;;;;5036176;28;20044;-68
2022/08/10 00:20:05;;;;;;;10.75;8.52;;;11.10;99.90;;;;;;5036296;28;20529;-68
2022/08/10 00:22:31;;;;;;;14.75;10.05;;;11.00;99.90;;;;;;5035005;28;20025;-68
2022/08/10 00:24:57;;;;;;;12.50;8.40;;;11.00;99.90;;;;;;5035939;28;20039;-68
2022/08/10 00:27:23;;;;;;;11.65;9.15;;;11.00;99.90;;;;;;5035828;28;20018;-67
2022/08/10 00:29:49;;;;;;;13.23;10.07;;;11.00;99.90;;;;;;5036114;28;20025;-67
2022/08/10 00:32:15;;;;;;;16.38;9.82;;;11.00;99.90;;;;;;5034900;28;20164;-67
2022/08/10 00:34:40;;;;;;;13.50;10.05;;;11.00;99.90;;;;;;5035933;28;20068;-67
2022/08/10 00:37:06;;;;;;;13.25;9.50;;;11.00;99.90;;;;;;5035712;28;20032;-67
2022/08/10 00:39:32;;;;;;;11.82;9.27;;;11.00;99.90;;;;;;5035632;28;20033;-67
2022/08/10 00:41:57;;;;;;;13.48;7.90;;;11.00;99.90;;;;;;5029666;28;20065;-67
2022/08/10 00:44:23;;;;;;;10.63;8.68;;;11.00;99.90;;;;;;5017715;28;20030;-67
2022/08/10 00:46:49;;;;;;;12.50;9.50;;;11.00;99.90;;;;;;5035512;28;20030;-67
2022/08/10 00:49:14;;;;;;;10.90;8.73;;;11.00;99.90;;;;;;5035437;28;20030;-68
2022/08/10 00:51:41;;;;;;;15.23;9.20;;;11.00;99.90;;;;;;5034667;28;20478;-68
2022/08/10 00:54:07;;;;;;;13.25;8.75;;;11.00;99.90;;;;;;5035671;28;20032;-68
2022/08/10 00:56:33;;;;;;;8.90;7.22;;;10.90;99.90;;;;;;5035381;28;20025;-68
2022/08/10 00:58:59;;;;;;;9.98;6.32;;;10.90;99.90;;;;;;5035538;28;20377;-68
2022/08/10 01:01:24;;;;;;;9.32;6.53;;;10.80;99.90;;;;;;5034424;28;20116;-67
2022/08/10 01:03:50;;;;;;;6.68;5.60;;;10.90;99.90;;;;;;5034581;28;20116;-68
2022/08/10 01:06:29;;;;;;;6.95;5.20;;;10.90;99.90;;;;;;5035166;28;20026;-68
2022/08/10 01:09:17;;;;;;;9.40;5.65;;;10.80;99.90;;;;;;5021816;28;20021;-67
2022/08/10 01:11:54;;;;;;;8.68;6.10;;;10.90;99.90;;;;;;5034006;28;20033;-67
2022/08/10 01:14:50;;;;;;;6.55;5.15;;;10.80;99.90;;;;;;5034599;28;20025;-68
2022/08/10 01:17:41;;;;;;;8.98;5.07;;;10.70;99.90;;;;;;5035344;28;20017;-67
2022/08/10 01:20:29;;;;;;;6.03;5.43;;;10.70;99.90;;;;;;5035446;28;20026;-67
2022/08/10 01:23:24;;;;;;;6.78;5.60;;;10.70;99.90;;;;;;5015216;28;20030;-67
2022/08/10 01:26:28;;;;;;;7.45;5.32;;;10.60;99.90;;;;;;5015320;28;20021;-67
2022/08/10 01:29:25;;;;;;;6.05;4.97;;;10.60;99.90;;;;;;5015280;28;20033;-68
2022/08/10 01:34:32;;;;;;;5.65;4.80;;;10.50;99.90;;;;;;5033364;28;20060;-69
2022/08/10 01:37:13;;;;;;;8.93;5.43;;;10.50;99.90;;;;;;5035022;28;20029;-69
2022/08/10 01:39:43;;;;;;;7.80;4.95;;;10.50;99.90;;;;;;5034920;28;20022;-69
2022/08/10 01:42:13;;;;;;;7.13;5.03;;;10.50;99.90;;;;;;5032806;28;20450;-69
2022/08/10 01:44:46;;;;;;;8.55;5.63;;;10.50;99.90;;;;;;5034853;28;20034;-69
2022/08/10 01:50:08;;;;;;;6.10;4.90;;;10.40;99.90;;;;;;5034852;28;20063;-69
2022/08/10 01:52:37;;;;;;;5.15;4.65;;;10.40;99.90;;;;;;5033332;28;20033;-69
2022/08/10 01:55:04;;;;;;;6.30;4.78;;;10.30;99.90;;;;;;5034273;28;20071;-69
2022/08/10 01:57:31;;;;;;;4.50;3.85;;;10.30;99.90;;;;;;5034093;28;20029;-69
2022/08/10 01:59:59;;;;;;;7.72;4.63;;;10.30;99.90;;;;;;5034228;28;20100;-69
2022/08/10 02:02:29;;;;;;;5.13;4.63;;;10.30;99.90;;;;;;5032110;28;20060;-69
2022/08/10 02:04:54;;;;;;;6.43;5.03;;;10.30;99.90;;;;;;5034176;28;20112;-68
2022/08/10 02:07:24;;;;;;;7.25;4.60;;;10.20;99.90;;;;;;5033990;28;20092;-68
2022/08/10 02:09:55;;;;;;;4.75;4.30;;;10.20;99.90;;;;;;5034351;28;20021;-69
2022/08/10 02:12:27;;;;;;;5.90;4.53;;;10.10;99.90;;;;;;5033044;28;20025;-69
2022/08/10 02:14:57;;;;;;;5.13;4.50;;;10.10;99.90;;;;;;5034050;28;20021;-69
2022/08/10 02:17:33;;;;;;;5.95;4.80;;;10.10;99.90;;;;;;5033901;28;20426;-69
2022/08/10 02:20:04;;;;;;;6.10;5.22;;;10.10;99.90;;;;;;5033931;28;20623;-69
2022/08/10 02:22:31;;;;;;;6.93;5.40;;;10.10;99.90;;;;;;5031965;28;20030;-69
2022/08/10 02:24:59;;;;;;;5.93;4.82;;;10.00;99.90;;;;;;5033792;28;20017;-69
2022/08/10 02:27:27;;;;;;;5.85;4.82;;;10.00;99.90;;;;;;5034069;28;20021;-69
2022/08/10 02:29:53;;;;;;;9.07;5.35;;;10.00;99.90;;;;;;5034294;28;20021;-69
2022/08/10 02:32:24;;;;;;;9.45;5.95;;;10.00;99.90;;;;;;5032425;28;20037;-69
2022/08/10 02:34:50;;;;;;;11.30;6.95;;;10.00;99.90;;;;;;5033900;28;20026;-69
2022/08/10 02:37:20;;;;;;;9.68;6.60;;;9.90;99.90;;;;;;5033514;28;20433;-69
2022/08/10 02:39:46;;;;;;;10.02;7.40;;;9.90;99.90;;;;;;5033864;28;20018;-69
2022/08/10 02:42:21;;;;;;;10.93;8.18;;;9.90;99.90;;;;;;5032568;28;20086;-69
2022/08/10 02:45:05;;;;;;;13.88;8.18;;;9.90;99.90;;;;;;5034044;28;20034;-69
2022/08/10 02:47:38;;;;;;;9.82;7.18;;;9.90;99.90;;;;;;5015707;28;20033;-69
2022/08/10 02:50:10;;;;;;;8.27;6.70;;;9.90;99.90;;;;;;5033571;28;20555;-69
2022/08/10 02:52:45;;;;;;;10.57;6.93;;;9.90;99.90;;;;;;5032338;28;20068;-69
2022/08/10 02:55:22;;;;;;;10.77;7.18;;;9.90;99.90;;;;;;5033718;28;20523;-69
2022/08/10 02:57:53;;;;;;;7.97;5.75;;;9.80;99.90;;;;;;5015713;28;20026;-69
2022/08/10 03:00:19;;;;;;;9.50;7.43;;;9.80;99.90;;;;;;5015690;28;20121;-69
2022/08/10 03:02:48;;;;;;;8.13;6.20;;;9.80;99.90;;;;;;5032149;28;20072;-69
2022/08/10 03:05:16;;;;;;;9.73;7.32;;;9.90;99.90;;;;;;5033658;28;20045;-69
2022/08/10 03:07:54;;;;;;;11.18;7.22;;;9.80;99.90;;;;;;5033389;28;20548;-69
2022/08/10 03:10:31;;;;;;;11.07;7.57;;;9.80;99.90;;;;;;5033312;28;20022;-69
2022/08/10 03:12:59;;;;;;;13.10;8.55;;;9.80;99.90;;;;;;5032132;28;20566;-69
2022/08/10 03:15:27;;;;;;;15.45;9.15;;;9.80;99.90;;;;;;5033322;28;20030;-69
2022/08/10 03:17:55;;;;;;;16.35;11.85;;;9.80;99.90;;;;;;5033219;28;20026;-69
2022/08/10 03:20:22;;;;;;;14.90;9.82;;;9.80;99.90;;;;;;5033816;28;20049;-69
2022/08/10 03:22:52;;;;;;;16.48;10.52;;;9.70;99.90;;;;;;5032359;28;20380;-69
2022/08/10 03:25:21;;;;;;;16.60;11.13;;;9.70;99.90;;;;;;5034066;28;20132;-68
2022/08/10 03:27:47;;;;;;;18.80;11.85;;;9.60;99.90;;;;;;5036437;28;20021;-69
2022/08/10 03:30:13;;;;;;;23.42;13.55;;;9.60;99.90;;;;;;5037170;28;20041;-69
2022/08/10 03:32:40;;;;;;;20.65;13.75;;;9.50;99.90;;;;;;5036028;28;20025;-69
2022/08/10 03:35:07;;;;;;;21.98;14.02;;;9.50;99.90;;;;;;5036999;28;20469;-69
2022/08/10 03:37:33;;;;;;;18.00;13.27;;;9.50;99.90;;;;;;5037037;28;20088;-69
2022/08/10 03:39:59;;;;;;;19.90;13.63;;;9.50;99.90;;;;;;5037529;28;20049;-69
2022/08/10 03:42:26;;;;;;;23.38;15.90;;;9.40;99.90;;;;;;5035146;28;20040;-69
2022/08/10 03:44:53;;;;;;;19.55;14.60;;;9.40;99.90;;;;;;5036782;28;20021;-69
2022/08/10 03:47:20;;;;;;;19.15;13.20;;;9.40;99.90;;;;;;5037025;28;20021;-69
2022/08/10 03:49:47;;;;;;;23.73;12.85;;;9.40;99.90;;;;;;5036953;28;20493;-69
2022/08/10 03:52:14;;;;;;;19.23;12.60;;;9.40;99.90;;;;;;5035524;28;20029;-69
2022/08/10 03:54:41;;;;;;;17.23;13.13;;;9.40;99.90;;;;;;5036593;28;20032;-69
2022/08/10 03:57:07;;;;;;;20.45;14.73;;;9.40;99.90;;;;;;5037133;28;20119;-69
2022/08/10 03:59:34;;;;;;;23.13;13.10;;;9.40;99.90;;;;;;5036495;28;20025;-69
2022/08/10 04:02:01;;;;;;;21.27;14.77;;;9.40;99.90;;;;;;5035321;28;20025;-69
2022/08/10 04:04:27;;;;;;;23.60;14.63;;;9.50;99.90;;;;;;5036231;28;20482;-69
2022/08/10 04:06:56;;;;;;;26.25;15.27;;;9.50;99.90;;;;;;5036448;28;20032;-69
2022/08/10 04:09:27;;;;;;;24.08;13.77;;;9.50;99.90;;;;;;5036674;28;20466;-69
2022/08/10 04:11:52;;;;;;;23.73;13.55;;;9.40;99.90;;;;;;5035280;28;20388;-69
2022/08/10 04:14:18;;;;;;;19.50;13.88;;;9.40;99.90;;;;;;5036313;28;20113;-69
2022/08/10 04:16:43;;;;;;;20.45;13.77;;;9.40;99.90;;;;;;5031540;28;20034;-68
2022/08/10 04:19:10;;;;;;;21.42;12.85;;;9.40;99.90;;;;;;5016464;28;20053;-69
2022/08/10 04:21:39;;;;;;;20.67;12.13;;;9.40;99.90;;;;;;5020119;28;20580;-69
2022/08/10 04:24:08;;;;;;;16.90;11.55;;;9.50;99.90;;;;;;5035858;28;20049;-69
2022/08/10 04:26:34;;;;;;;16.58;11.75;;;9.50;99.90;;;;;;5036554;28;20021;-69
2022/08/10 04:28:59;;;;;;;22.38;12.80;;;9.60;99.90;;;;;;5036280;28;20028;-69
2022/08/10 04:31:26;;;;;;;21.23;13.38;;;9.60;99.90;;;;;;5034732;28;20026;-69
2022/08/10 04:33:53;;;;;;;17.25;11.05;;;9.70;99.90;;;;;;5035662;28;20041;-69
2022/08/10 04:36:20;;;;;;;19.05;12.07;;;9.70;99.90;;;;;;5025556;28;20065;-69
2022/08/10 04:38:49;;;;;;;22.40;12.27;;;9.70;99.90;;;;;;5014920;28;20033;-69
2022/08/10 04:41:15;;;;;;;21.23;10.75;;;9.80;99.90;;;;;;5016024;28;20489;-68
2022/08/10 04:43:41;;;;;;;27.13;12.55;;;9.80;99.90;;;;;;5035391;28;20037;-69
2022/08/10 04:46:06;;;;;;;17.55;11.20;;;9.90;99.90;;;;;;5035616;28;20021;-69
2022/08/10 04:48:32;;;;;;;16.05;10.60;;;10.00;99.90;;;;;;5035577;28;20390;-69
2022/08/10 04:50:57;;;;;;;19.25;12.02;;;10.00;99.90;;;;;;5036394;28;20104;-69
2022/08/10 04:53:23;;;;;;;17.45;12.38;;;10.20;99.90;;;;;;5034275;28;20045;-69
2022/08/10 04:55:49;;;;;;;18.70;10.60;;;10.20;99.90;;;;;;5035484;28;20025;-70
2022/08/10 04:58:14;;;;;;;20.35;11.43;;;10.30;99.90;;;;;;5035416;28;20034;-70
2022/08/10 05:00:40;;;;;;;18.17;10.77;;;10.40;99.90;;;;;;5035634;28;20026;-69
2022/08/10 05:03:06;;;;;;;24.90;12.15;;;10.50;99.90;;;;;;5034261;28;20064;-69
2022/08/10 05:05:31;;;;;;;14.65;9.98;;;10.60;99.90;;;;;;5034328;28;20497;-69
2022/08/10 05:07:57;;;;;;;12.48;9.80;;;10.70;99.90;;;;;;5035479;28;20036;-69
2022/08/10 05:10:22;;;;;;;12.38;9.02;;;10.80;99.90;;;;;;5035215;28;20028;-69
2022/08/10 05:12:48;;;;;;;12.07;9.10;;;10.90;99.90;;;;;;5033239;28;20463;-69
2022/08/10 05:15:16;;;;;;;13.23;9.38;;;11.00;99.90;;;;;;5017383;28;20029;-69
2022/08/10 05:17:42;;;;;;;10.13;8.30;;;11.10;99.90;;;;;;5035077;28;20022;-69
2022/08/10 05:20:10;;;;;;;11.20;9.48;;;11.20;99.90;;;;;;5035015;28;20441;-69
2022/08/10 05:22:41;;;;;;;8.38;6.82;;;11.30;99.90;;;;;;5032906;28;20121;-69
2022/08/10 05:25:12;;;;;;;8.57;6.82;;;11.40;99.90;;;;;;5035305;28;20473;-70
2022/08/10 05:27:38;;;;;;;9.63;7.65;;;11.60;99.90;;;;;;5035233;28;20483;-69
2022/08/10 05:30:06;;;;;;;9.50;7.65;;;11.70;99.90;;;;;;5017259;28;20068;-69
2022/08/10 05:32:32;;;;;;;9.98;7.88;;;11.80;99.90;;;;;;5030894;28;20064;-69
2022/08/10 05:34:58;;;;;;;13.63;9.35;;;12.00;99.90;;;;;;5034442;28;20416;-69
2022/08/10 05:37:24;;;;;;;13.90;8.80;;;12.20;99.90;;;;;;5034822;28;20037;-69
2022/08/10 05:39:50;;;;;;;10.88;7.80;;;12.30;99.90;;;;;;5034748;28;20037;-69
2022/08/10 05:42:16;;;;;;;11.02;8.35;;;12.50;99.90;;;;;;5034752;28;20028;-69
2022/08/10 05:44:43;;;;;;;10.73;9.00;;;12.60;99.90;;;;;;5034499;28;20025;-69
2022/08/10 05:47:09;;;;;;;8.45;7.22;;;12.90;99.90;;;;;;5032419;28;20020;-69
2022/08/10 05:49:35;;;;;;;9.38;7.25;;;12.90;99.90;;;;;;5028549;28;20029;-69
2022/08/10 05:52:01;;;;;;;13.05;8.65;;;13.20;99.90;;;;;;5028602;28;20370;-68
2022/08/10 05:54:27;;;;;;;14.10;9.07;;;13.30;99.90;;;;;;5033301;28;20032;-69
2022/08/10 05:56:53;;;;;;;15.95;9.13;;;13.50;99.90;;;;;;5034467;28;20545;-69
2022/08/10 05:59:19;;;;;;;9.60;8.13;;;13.60;99.90;;;;;;5033330;28;20037;-70
2022/08/10 06:01:48;;;;;;;10.88;8.23;;;13.80;99.90;;;;;;5033142;28;20047;-69
2022/08/10 06:04:25;;;;;;;12.02;10.13;;;13.90;99.90;;;;;;5032974;28;20036;-69
2022/08/10 06:06:53;;;;;;;14.23;11.32;;;14.20;99.90;;;;;;5034291;28;20014;-69
2022/08/10 06:09:19;;;;;;;14.68;9.15;;;14.30;99.90;;;;;;5034003;28;20018;-69
2022/08/10 06:11:49;;;;;;;10.80;7.65;;;14.40;99.90;;;;;;5034097;28;20025;-69
2022/08/10 06:17:02;;;;;;;14.63;9.45;;;14.60;99.90;;;;;;5032173;28;20116;-69
2022/08/10 06:19:28;;;;;;;12.52;9.25;;;14.90;99.90;;;;;;5032718;28;20033;-69
2022/08/10 06:21:56;;;;;;;9.30;7.03;;;15.00;99.90;;;;;;5033590;28;20588;-69
2022/08/10 06:24:25;;;;;;;13.02;7.55;;;15.10;99.90;;;;;;5030308;28;20021;-68
2022/08/10 06:26:50;;;;;;;11.43;8.10;;;15.30;99.90;;;;;;5028375;28;20013;-69
2022/08/10 06:29:18;;;;;;;10.70;7.75;;;15.50;99.90;;;;;;5032356;28;20029;-69
2022/08/10 06:31:48;;;;;;;16.27;8.63;;;15.70;99.90;;;;;;5033663;28;20067;-70
2022/08/10 06:34:16;;;;;;;13.68;8.82;;;15.90;99.90;;;;;;5031704;28;20110;-69
2022/08/10 06:36:44;;;;;;;9.80;7.78;;;15.90;99.90;;;;;;5033853;28;20386;-70
2022/08/10 06:39:11;;;;;;;11.77;8.70;;;16.10;99.90;;;;;;5032308;28;20103;-69
2022/08/10 06:41:45;;;;;;;12.30;8.40;;;16.10;99.90;;;;;;5031554;28;20497;-69
2022/08/10 06:44:18;;;;;;;20.50;8.15;;;16.30;99.90;;;;;;5033417;28;20073;-70
2022/08/10 06:46:48;;;;;;;14.45;7.75;;;16.50;99.90;;;;;;5032713;28;20057;-69
2022/08/10 06:49:17;;;;;;;13.20;7.40;;;16.70;99.90;;;;;;5032511;28;20068;-70
2022/08/10 06:51:46;;;;;;;10.45;7.22;;;16.90;99.90;;;;;;5030513;28;20024;-69
2022/08/10 06:54:13;;;;;;;7.78;6.35;;;17.00;99.90;;;;;;5033444;28;20406;-69
2022/08/10 06:56:42;;;;;;;13.68;5.93;;;17.20;99.90;;;;;;5032972;28;20036;-69
2022/08/10 06:59:14;;;;;;;8.15;5.05;;;17.40;99.90;;;;;;5032494;28;20044;-69
2022/08/10 07:01:42;;;;;;;5.18;4.68;;;17.50;99.90;;;;;;5024513;28;20040;-66
2022/08/10 07:04:17;;;;;;;9.18;5.05;;;17.80;99.90;;;;;;5015005;28;20390;-68
2022/08/10 07:06:45;;;;;;;9.82;4.82;;;17.90;99.90;;;;;;5019315;28;20036;-69
2022/08/10 07:09:14;;;;;;;15.02;5.90;;;18.00;99.90;;;;;;5022097;28;20026;-68
2022/08/10 07:11:42;;;;;;;5.85;4.28;;;18.30;99.90;;;;;;5018066;28;20022;-68
2022/08/10 07:14:11;;;;;;;5.35;4.13;;;18.40;99.90;;;;;;5022279;28;20025;-69
2022/08/10 07:16:38;;;;;;;10.88;4.00;;;18.50;99.90;;;;;;5033589;28;20041;-70
2022/08/10 07:19:06;;;;;;;7.80;3.83;;;18.70;99.90;;;;;;5032362;28;20053;-69
2022/08/10 07:21:34;;;;;;;8.75;4.07;;;19.00;99.90;;;;;;5031947;28;20112;-70
2022/08/10 07:24:01;;;;;;;9.32;3.50;;;19.10;99.90;;;;;;5032464;28;20388;-69
2022/08/10 07:26:29;;;;;;;9.52;3.10;;;19.30;99.90;;;;;;5032362;28;20096;-69
2022/08/10 07:28:56;;;;;;;13.15;3.50;;;19.50;99.90;;;;;;5031777;28;20079;-70
2022/08/10 07:31:23;;;;;;;7.97;3.58;;;19.60;99.90;;;;;;5032893;28;20017;-70
2022/08/10 07:33:52;;;;;;;6.53;2.97;;;19.70;99.90;;;;;;5067761;22;20080;-66
2022/08/10 07:36:19;;;;;;;5.38;3.72;;;19.90;99.90;;;;;;5052874;28;20017;-66
2022/08/10 07:38:47;;;;;;;10.65;3.05;;;20.20;99.90;;;;;;5051739;28;20041;-66
2022/08/10 07:41:14;;;;;;;8.13;3.25;;;20.20;99.90;;;;;;5052762;28;20082;-66
2022/08/10 07:43:40;;;;;;;6.97;3.30;;;20.30;99.90;;;;;;5051651;28;20112;-66
2022/08/10 07:46:11;;;;;;;9.55;3.03;;;20.40;99.90;;;;;;5052826;28;20021;-66
2022/08/10 07:48:44;;;;;;;3.78;2.60;;;20.70;99.90;;;;;;5050278;28;20076;-67
2022/08/10 07:51:11;;;;;;;5.40;2.72;;;20.80;99.90;;;;;;5052551;28;20021;-66
2022/08/10 07:53:42;;;;;;;6.38;2.85;;;20.90;99.90;;;;;;5052943;28;20112;-66
2022/08/10 07:56:09;;;;;;;8.90;3.60;;;20.90;99.90;;;;;;5052678;28;20477;-66
2022/08/10 07:58:40;;;;;;;27.63;6.68;;;20.90;99.90;;;;;;5052499;28;20033;-66
2022/08/10 08:01:05;;;;;;;7.60;2.28;;;21.10;99.90;;;;;;5050559;28;20032;-66
2022/08/10 08:03:32;;;;;;;5.97;2.15;;;21.30;99.90;;;;;;5049708;28;20033;-67
2022/08/10 08:06:00;;;;;;;8.80;3.08;;;21.40;99.90;;;;;;5052594;28;20029;-68
2022/08/10 08:08:27;;;;;;;5.38;1.90;;;21.40;99.90;;;;;;5051555;28;20021;-68
2022/08/10 08:10:54;;;;;;;10.75;2.58;;;21.50;99.90;;;;;;5052634;28;20447;-68
2022/08/10 08:13:21;;;;;;;6.53;3.30;;;21.70;99.90;;;;;;5054130;28;20107;-68
2022/08/10 08:15:47;;;;;;;3.55;2.20;;;22.10;99.90;;;;;;5055692;28;20025;-68
2022/08/10 08:18:14;;;;;;;3.78;2.28;;;22.30;99.90;;;;;;5056207;28;20029;-68
2022/08/10 08:20:42;;;;;;;5.43;2.67;;;22.50;99.90;;;;;;5055050;28;20103;-68
2022/08/10 08:23:09;;;;;;;3.90;2.13;;;22.70;99.90;;;;;;5055848;28;20024;-68
2022/08/10 08:25:35;;;;;;;11.25;3.15;;;22.80;99.90;;;;;;5052628;28;20061;-68
2022/08/10 08:28:01;;;;;;;3.92;1.88;;;22.70;99.90;;;;;;5056435;28;20520;-68
2022/08/10 08:30:28;;;;;;;8.02;2.65;;;22.60;99.90;;;;;;5055259;28;20374;-68
2022/08/10 08:32:55;;;;;;;4.50;2.10;;;22.60;99.90;;;;;;5054588;28;20048;-68
2022/08/10 08:35:22;;;;;;;3.85;1.80;;;22.50;99.90;;;;;;5055629;28;20028;-68
2022/08/10 08:37:51;;;;;;;4.00;2.10;;;22.40;99.90;;;;;;5055136;28;20035;-68
2022/08/10 08:40:29;;;;;;;4.97;2.33;;;22.40;99.90;;;;;;5054889;28;20025;-68
2022/08/10 08:43:30;;;;;;;3.00;1.70;;;22.60;99.90;;;;;;5055463;28;20461;-68
2022/08/10 08:46:18;;;;;;;7.47;3.20;;;22.80;99.90;;;;;;5053795;28;20438;-68
2022/08/10 08:48:44;;;;;;;12.23;2.20;;;23.10;99.90;;;;;;5055615;28;20376;-68
2022/08/10 08:51:48;;;;;;;6.93;1.73;;;23.10;99.90;;;;;;5054657;28;20104;-68
2022/08/10 08:54:47;;;;;;;2.72;1.73;;;23.20;99.90;;;;;;5055079;28;20032;-67
2022/08/10 08:57:38;;;;;;;1.75;1.50;;;23.30;99.90;;;;;;5053496;28;20033;-67
2022/08/10 09:00:14;;;;;;;3.25;1.33;;;23.30;99.90;;;;;;5055203;28;20033;-67
2022/08/10 09:02:51;;;;;;;6.35;1.55;;;23.60;99.90;;;;;;5052949;28;20408;-67
2022/08/10 09:05:45;;;;;;;2.83;1.30;;;24.10;99.90;;;;;;5042747;28;20021;-67
2022/08/10 09:08:24;;;;;;;3.05;1.40;;;24.30;99.90;;;;;;5035101;28;20393;-67
2022/08/10 09:11:25;;;;;;;1.70;1.27;;;24.80;99.90;;;;;;5055705;28;20021;-67
2022/08/10 09:14:07;;;;;;;1.52;1.10;;;24.90;99.90;;;;;;5053558;28;20037;-68
2022/08/10 09:17:01;;;;;;;3.80;1.08;;;24.90;99.90;;;;;;5053341;28;20551;-67
2022/08/10 09:19:49;;;;;;;4.57;1.42;;;24.70;99.90;;;;;;5051841;28;20028;-67
2022/08/10 09:22:29;;;;;;;6.68;1.85;;;24.50;99.90;;;;;;5039489;28;20040;-68
2022/08/10 09:25:13;;;;;;;4.25;1.10;;;24.30;99.90;;;;;;5053590;28;20024;-67
2022/08/10 09:27:59;;;;;;;5.13;1.35;;;24.10;99.90;;;;;;5053837;28;20036;-67
2022/08/10 09:30:49;;;;;;;5.22;1.40;;;24.00;99.90;;;;;;5055076;28;20063;-67
2022/08/10 09:33:24;;;;;;;7.43;1.40;;;24.10;99.90;;;;;;5037009;28;20128;-68
2022/08/10 09:36:04;;;;;;;3.17;1.05;;;24.20;99.90;;;;;;5052195;28;20051;-68
2022/08/10 09:38:53;;;;;;;5.28;1.30;;;24.20;99.90;;;;;;5053947;28;20060;-67
2022/08/10 09:41:25;;;;;;;4.45;1.23;;;24.10;99.90;;;;;;5054837;28;20024;-67
2022/08/10 09:44:09;;;;;;;2.15;0.75;;;24.10;99.90;;;;;;5052407;28;20057;-67
2022/08/10 09:46:48;;;;;;;1.90;0.98;;;24.00;99.90;;;;;;5053448;28;20064;-67
2022/08/10 09:49:26;;;;;;;4.05;1.45;;;24.10;99.90;;;;;;5053559;28;20079;-67
2022/08/10 09:52:39;;;;;;;3.63;1.27;;;24.40;99.90;;;;;;5040800;28;20052;-67
2022/08/10 09:55:24;;;;;;;2.53;1.00;;;24.80;99.90;;;;;;5031801;28;20370;-67
2022/08/10 09:58:10;;;;;;;3.75;1.75;;;25.20;99.90;;;;;;5052897;28;20043;-67
2022/08/10 10:00:44;;;;;;;2.30;1.23;;;25.30;99.90;;;;;;5002882;28;20045;-67
2022/08/10 10:03:23;;;;;;;2.40;1.23;;;25.20;99.90;;;;;;5052437;28;20484;-67
2022/08/10 10:06:18;;;;;;;4.32;1.38;;;25.20;99.90;;;;;;5053193;28;20025;-67
2022/08/10 10:08:54;;;;;;;4.35;1.30;;;25.20;99.90;;;;;;5043346;28;20040;-67
2022/08/10 10:11:22;;;;;;;2.38;1.02;;;25.40;99.90;;;;;;5034080;28;20025;-67
2022/08/10 10:14:09;;;;;;;2.38;1.13;;;25.30;99.90;;;;;;5033946;28;20401;-67
2022/08/10 10:16:45;;;;;;;6.55;1.33;;;25.40;99.90;;;;;;5052823;28;20028;-67
2022/08/10 10:19:48;;;;;;;1.80;1.13;;;25.50;99.90;;;;;;5054714;28;20036;-67
2022/08/10 10:23:09;;;;;;;3.80;1.10;;;25.50;99.90;;;;;;5052299;28;20029;-67
2022/08/10 10:25:55;;;;;;;5.75;1.17;;;25.30;99.90;;;;;;4947878;28;20046;-67
2022/08/10 10:28:42;;;;;;;3.15;0.93;;;25.40;99.90;;;;;;4948720;29;20101;-68
2022/08/10 10:31:23;;;;;;;1.70;0.90;;;25.60;99.90;;;;;;5017958;28;20469;-67
2022/08/10 10:34:03;;;;;;;5.03;0.68;;;25.90;99.90;;;;;;5042463;28;20128;-67
2022/08/10 10:36:31;;;;;;;1.55;1.10;;;25.80;99.90;;;;;;5046208;28;20076;-67
2022/08/10 10:38:58;;;;;;;2.45;0.65;;;26.00;99.90;;;;;;5050130;28;20405;-67
2022/08/10 10:41:52;;;;;;;6.95;1.33;;;26.10;99.90;;;;;;5046526;28;20083;-67
2022/08/10 10:44:29;;;;;;;1.15;1.05;;;26.30;99.90;;;;;;5043160;28;20040;-67
2022/08/10 10:47:08;;;;;;;1.83;0.90;;;26.40;99.90;;;;;;5046359;28;20027;-67
2022/08/10 10:50:04;;;;;;;2.00;1.00;;;26.50;99.90;;;;;;5037696;28;20049;-67
2022/08/10 10:52:55;;;;;;;2.03;0.85;;;26.40;99.90;;;;;;5045857;28;20029;-67
2022/08/10 10:55:56;;;;;;;8.88;1.10;;;26.60;99.90;;;;;;5044923;28;20037;-67
2022/08/10 10:58:24;;;;;;;1.92;1.10;;;26.50;99.90;;;;;;5005274;28;20042;-67
2022/08/10 11:01:13;;;;;;;2.15;0.88;;;27.30;99.90;;;;;;5047459;28;20112;-67
2022/08/10 11:03:47;;;;;;;3.08;1.33;;;28.10;99.90;;;;;;5044013;28;20033;-67
2022/08/10 11:06:42;;;;;;;2.63;0.98;;;28.50;99.90;;;;;;5052272;28;20033;-67
2022/08/10 11:09:18;;;;;;;1.92;1.00;;;28.30;99.90;;;;;;5051449;28;20025;-67
2022/08/10 11:11:47;;;;;;;2.20;0.80;;;28.10;99.90;;;;;;5052551;28;20067;-66
2022/08/10 11:14:35;;;;;;;1.00;0.85;;;28.30;99.90;;;;;;5053127;28;20111;-67
2022/08/10 11:17:04;;;;;;;2.22;1.15;;;28.40;99.90;;;;;;5050697;28;20510;-67
2022/08/10 11:19:44;;;;;;;5.32;1.20;;;28.30;99.90;;;;;;5053260;28;20029;-67
2022/08/10 11:22:19;;;;;;;5.38;1.55;;;28.20;99.90;;;;;;5052056;28;20041;-67
2022/08/10 11:24:55;;;;;;;2.10;0.75;;;27.80;99.90;;;;;;5052872;28;20028;-67
2022/08/10 11:27:41;;;;;;;1.17;0.60;;;28.10;99.90;;;;;;5052155;28;20120;-67
2022/08/10 11:30:11;;;;;;;2.88;1.10;;;27.90;99.90;;;;;;5039771;28;20013;-69
2022/08/10 11:33:01;;;;;;;4.13;1.02;;;27.70;99.90;;;;;;5051945;28;20416;-69
2022/08/10 11:35:40;;;;;;;3.58;1.42;;;27.70;99.90;;;;;;5052754;28;20017;-69
2022/08/10 11:38:35;;;;;;;1.48;0.93;;;27.70;99.90;;;;;;5050330;28;20067;-69
2022/08/10 11:41:08;;;;;;;13.88;1.40;;;28.10;99.90;;;;;;5049239;28;20037;-69
2022/08/10 11:43:40;;;;;;;9.55;0.90;;;28.90;99.90;;;;;;5033008;28;20048;-69
2022/08/10 11:46:30;;;;;;;5.65;1.13;;;29.00;99.90;;;;;;5034317;28;20021;-69
2022/08/10 11:49:01;;;;;;;5.38;1.17;;;28.70;99.90;;;;;;5055097;28;20021;-69
2022/08/10 11:51:42;;;;;;;5.50;0.90;;;28.50;99.90;;;;;;5055616;28;20445;-69
2022/08/10 11:54:20;;;;;;;2.90;1.05;;;28.40;99.90;;;;;;5056577;28;20032;-69
2022/08/10 11:56:55;;;;;;;6.38;1.38;;;28.60;99.90;;;;;;5054518;28;20029;-69
2022/08/10 12:02:13;;;;;;;4.22;1.15;;;28.80;99.90;;;;;;5054426;28;20102;-69
2022/08/10 12:04:44;;;;;;;2.38;1.08;;;29.00;99.90;;;;;;5052389;28;20119;-68
2022/08/10 12:07:11;;;;;;;2.15;0.75;;;29.40;99.90;;;;;;5045926;28;20025;-68
2022/08/10 12:09:37;;;;;;;4.25;1.25;;;29.60;99.90;;;;;;5056591;28;20025;-68
2022/08/10 12:12:05;;;;;;;4.35;1.20;;;29.60;99.90;;;;;;5054537;28;20100;-69
2022/08/10 12:14:58;;;;;;;3.88;1.13;;;29.60;99.90;;;;;;5056077;28;20040;-69
2022/08/10 12:17:48;;;;;;;1.75;0.77;;;29.70;99.90;;;;;;5044735;28;20041;-69
2022/08/10 12:20:28;;;;;;;1.60;0.75;;;30.20;99.90;;;;;;5056368;28;20033;-68
2022/08/10 12:23:01;;;;;;;1.70;0.80;;;31.00;99.90;;;;;;5055230;28;20025;-68
2022/08/10 12:26:00;;;;;;;4.88;1.02;;;31.10;99.90;;;;;;5056256;28;20056;-68
2022/08/10 12:28:50;;;;;;;7.63;1.05;;;30.30;99.90;;;;;;5055779;28;20021;-68
2022/08/10 12:31:19;;;;;;;5.18;1.30;;;30.00;99.90;;;;;;5055226;28;20025;-68
2022/08/10 12:33:49;;;;;;;4.13;0.90;;;30.00;99.90;;;;;;5055719;28;20029;-68
2022/08/10 12:36:21;;;;;;;3.33;1.02;;;29.80;99.90;;;;;;5054728;28;20385;-68
2022/08/10 12:39:01;;;;;;;6.82;1.45;;;29.50;99.90;;;;;;5054698;28;20021;-68
2022/08/10 12:41:41;;;;;;;3.22;1.13;;;29.50;99.90;;;;;;5054552;28;20044;-69
2022/08/10 12:44:14;;;;;;;3.35;0.90;;;29.70;99.90;;;;;;5054556;28;20033;-69
2022/08/10 12:47:15;;;;;;;2.15;0.80;;;29.90;99.90;;;;;;5054800;28;20028;-68
2022/08/10 12:49:55;;;;;;;6.53;1.40;;;29.60;99.90;;;;;;5055556;28;20021;-68
2022/08/10 12:52:33;;;;;;;6.43;0.93;;;28.80;99.90;;;;;;5054727;28;20044;-69
2022/08/10 12:55:01;;;;;;;5.60;1.30;;;29.50;99.90;;;;;;5056028;28;20111;-68
2022/08/10 12:57:28;;;;;;;3.50;1.00;;;30.10;99.90;;;;;;5053238;28;20024;-69
2022/08/10 12:59:58;;;;;;;2.47;1.00;;;30.70;99.90;;;;;;5054535;28;20072;-69
2022/08/10 13:02:30;;;;;;;4.47;0.93;;;31.60;99.90;;;;;;5054555;28;20415;-70
2022/08/10 13:04:58;;;;;;;1.25;1.00;;;32.40;99.90;;;;;;5054083;28;20021;-70
2022/08/10 13:07:32;;;;;;;2.92;0.77;;;32.30;99.80;;;;;;5055505;28;20547;-71
2022/08/10 13:10:04;;;;;;;5.65;1.10;;;31.90;99.10;;;;;;5054444;28;20104;-71
2022/08/10 13:12:35;;;;;;;3.93;1.13;;;31.40;99.90;;;;;;5052487;28;20025;-70
2022/08/10 13:15:16;;;;;;;2.40;0.95;;;31.40;99.60;;;;;;5055167;28;20029;-70
2022/08/10 13:17:49;;;;;;;3.40;1.10;;;31.50;99.90;;;;;;5055279;28;20025;-70
2022/08/10 13:20:26;;;;;;;7.15;1.20;;;31.70;98.70;;;;;;5042425;28;20028;-70
2022/08/10 13:22:55;;;;;;;2.75;0.63;;;31.70;99.80;;;;;;5055255;28;20385;-70